F/V La Roumasse — FHUV — position and weather

sailwx.info

Track history (hours):
 
Tides and Currents Weather Stations Pressure Air Temp Water Temp Dewpoint Dewpoint Depression Visibility Wind Speed Wind Dir Waves Ship Positions

F/V La Roumasse

Last reported at 2017-Sep-19 04:53 UTC. Time now 2017-Sep-19 17:19 UTC.
Position N 46°30' W 002°08'.

Length 17 m; draft 3.3 m.

Type: Fishing. MMSI: 227123700.

Date/timePositionNaut miles runAvg speedWind from/ knotsBaromVisibWave heightAir tempDewpointWater temp
2017-Sep-19 04:53N 46°30' W 002°08'3 8.8
2017-Sep-19 04:30N 46°32' W 002°06'5 8.8
2017-Sep-19 03:58N 46°36' W 002°02'4 8.6
2017-Sep-19 03:30N 46°40' W 001°59'3 2.8
2017-Sep-19 02:34N 46°42' W 001°56'0 5.0
2017-Sep-19 02:29N 46°42' W 001°57'4 8.5
2017-Sep-19 02:00N 46°38' W 002°01'4 8.6
2017-Sep-19 01:30N 46°35' W 002°05'6 8.6
2017-Sep-19 00:50N 46°31' W 002°10'3 0.1
2017-Sep-18 04:49N 46°32' W 002°07'3 8.5
2017-Sep-18 04:30N 46°34' W 002°05'4 8.5
2017-Sep-18 04:00N 46°37' W 002°01'4 8.5
2017-Sep-18 03:30N 46°41' W 001°58'1 1.3
2017-Sep-18 02:37N 46°42' W 001°56'1 5.0
2017-Sep-18 02:30N 46°41' W 001°57'4 8.5
2017-Sep-18 01:58N 46°38' W 002°02'4 8.5
2017-Sep-18 01:30N 46°35' W 002°05'4 8.5
2017-Sep-18 01:00N 46°32' W 002°09'2 0.1
2017-Sep-17 04:34N 46°33' W 002°06'1 8.4
2017-Sep-17 04:24N 46°34' W 002°05'3 8.3
2017-Sep-17 04:00N 46°36' W 002°02'4 8.2
2017-Sep-17 03:30N 46°40' W 001°58'  
2017-Sep-14 23:01N 46°42' W 001°56'0 0.1
2017-Sep-14 23:00N 46°42' W 001°56'3 6.8
2017-Sep-14 22:30N 46°39' W 001°59'4 8.3
2017-Sep-14 21:59N 46°35' W 002°02'4 7.8
2017-Sep-14 21:30N 46°32' W 002°04'4 7.8
2017-Sep-14 21:00N 46°28' W 002°07'6 0.3
2017-Sep-14 03:59N 46°24' W 002°12'10 2.8
2017-Sep-14 00:35N 46°32' W 002°06'1 5.7
2017-Sep-14 00:29N 46°33' W 002°05'3 5.6
2017-Sep-13 23:53N 46°36' W 002°03'3 5.5
2017-Sep-13 23:23N 46°38' W 002°00'2 5.6
2017-Sep-13 22:59N 46°40' W 001°59'2 2.4
2017-Sep-13 22:00N 46°42' W 001°56'3 6.9
2017-Sep-13 21:30N 46°39' W 001°59'4 8.2
2017-Sep-13 21:00N 46°35' W 002°01'4 8.4
2017-Sep-13 20:31N 46°31' W 002°04'5 8.4
2017-Sep-13 19:57N 46°27' W 002°06'7 0.4
2017-Sep-12 23:18N 46°34' W 002°05'3 7.7
2017-Sep-12 22:56N 46°36' W 002°02'3 7.9
2017-Sep-12 22:30N 46°39' W 001°59'3 3.1
2017-Sep-12 21:26N 46°42' W 001°56'3 6.4
2017-Sep-12 21:00N 46°39' W 001°59'4 8.6
2017-Sep-12 20:29N 46°35' W 002°00'4 8.6
2017-Sep-12 20:00N 46°31' W 002°02'4 8.6
2017-Sep-12 19:30N 46°27' W 002°03'5 8.7
2017-Sep-12 18:59N 46°22' W 002°05'9 0.7
2017-Sep-12 05:08N 46°32' W 002°06'1 8.0
2017-Sep-12 04:59N 46°33' W 002°05'4 8.0
2017-Sep-12 04:26N 46°36' W 002°02'4 8.2
2017-Sep-12 04:00N 46°39' W 001°59'3 3.2
2017-Sep-12 03:02N 46°42' W 001°56'0 5.2
2017-Sep-12 02:59N 46°42' W 001°57'4 7.5
2017-Sep-12 02:31N 46°39' W 001°59'4 8.5
2017-Sep-12 01:59N 46°35' W 002°02'4 8.5
2017-Sep-12 01:30N 46°31' W 002°04'5 8.3
2017-Sep-12 00:56N 46°27' W 002°07'20 1.7
2017-Sep-11 13:21N 46°10' W 001°50'14 2.3
2017-Sep-11 06:55N 46°23' W 001°59'2 5.0
2017-Sep-11 06:27N 46°26' W 001°58'4 8.2
2017-Sep-11 06:01N 46°29' W 001°58'4 8.2
2017-Sep-11 05:30N 46°34' W 001°58'4 8.3
2017-Sep-11 05:01N 46°38' W 001°58'4 3.9
2017-Sep-11 03:56N 46°42' W 001°57'4 8.1
2017-Sep-11 03:30N 46°39' W 002°00'4 8.4
2017-Sep-11 03:00N 46°36' W 002°04'5 8.5
2017-Sep-11 02:24N 46°32' W 002°09'3 8.2
2017-Sep-11 02:00N 46°30' W 002°12'8 0.4
2017-Sep-10 04:19N 46°35' W 002°04'3 8.1
2017-Sep-10 03:58N 46°37' W 002°01'4 8.2
2017-Sep-10 03:30N 46°40' W 001°58'  
Track history (hours):
 
Tides and Currents Weather Stations Pressure Air Temp Water Temp Dewpoint Dewpoint Depression Visibility Wind Speed Wind Dir Waves Ship Positions

F/V La Roumasse

Last reported at 2017-Sep-19 04:53 UTC. Time now 2017-Sep-19 17:19 UTC.
Position N 46°30' W 002°08'.

Length 17 m; draft 3.3 m.

Type: Fishing. MMSI: 227123700.

Date/timePositionNaut miles runAvg speedWind from/ knotsBaromVisibWave heightAir tempDewpointWater temp
2017-Sep-19 04:53N 46°30' W 002°08'3 8.8
2017-Sep-19 04:30N 46°32' W 002°06'5 8.8
2017-Sep-19 03:58N 46°36' W 002°02'4 8.6
2017-Sep-19 03:30N 46°40' W 001°59'3 2.8
2017-Sep-19 02:34N 46°42' W 001°56'0 5.0
2017-Sep-19 02:29N 46°42' W 001°57'4 8.5
2017-Sep-19 02:00N 46°38' W 002°01'4 8.6
2017-Sep-19 01:30N 46°35' W 002°05'6 8.6
2017-Sep-19 00:50N 46°31' W 002°10'3 0.1
2017-Sep-18 04:49N 46°32' W 002°07'3 8.5
2017-Sep-18 04:30N 46°34' W 002°05'4 8.5
2017-Sep-18 04:00N 46°37' W 002°01'4 8.5
2017-Sep-18 03:30N 46°41' W 001°58'1 1.3
2017-Sep-18 02:37N 46°42' W 001°56'1 5.0
2017-Sep-18 02:30N 46°41' W 001°57'4 8.5
2017-Sep-18 01:58N 46°38' W 002°02'4 8.5
2017-Sep-18 01:30N 46°35' W 002°05'4 8.5
2017-Sep-18 01:00N 46°32' W 002°09'2 0.1
2017-Sep-17 04:34N 46°33' W 002°06'1 8.4
2017-Sep-17 04:24N 46°34' W 002°05'3 8.3
2017-Sep-17 04:00N 46°36' W 002°02'4 8.2
2017-Sep-17 03:30N 46°40' W 001°58'  
2017-Sep-14 23:01N 46°42' W 001°56'0 0.1
2017-Sep-14 23:00N 46°42' W 001°56'3 6.8
2017-Sep-14 22:30N 46°39' W 001°59'4 8.3
2017-Sep-14 21:59N 46°35' W 002°02'4 7.8
2017-Sep-14 21:30N 46°32' W 002°04'4 7.8
2017-Sep-14 21:00N 46°28' W 002°07'6 0.3
2017-Sep-14 03:59N 46°24' W 002°12'10 2.8
2017-Sep-14 00:35N 46°32' W 002°06'1 5.7
2017-Sep-14 00:29N 46°33' W 002°05'3 5.6
2017-Sep-13 23:53N 46°36' W 002°03'3 5.5
2017-Sep-13 23:23N 46°38' W 002°00'2 5.6
2017-Sep-13 22:59N 46°40' W 001°59'2 2.4
2017-Sep-13 22:00N 46°42' W 001°56'3 6.9
2017-Sep-13 21:30N 46°39' W 001°59'4 8.2
2017-Sep-13 21:00N 46°35' W 002°01'4 8.4
2017-Sep-13 20:31N 46°31' W 002°04'5 8.4
2017-Sep-13 19:57N 46°27' W 002°06'7 0.4
2017-Sep-12 23:18N 46°34' W 002°05'3 7.7
2017-Sep-12 22:56N 46°36' W 002°02'3 7.9
2017-Sep-12 22:30N 46°39' W 001°59'3 3.1
2017-Sep-12 21:26N 46°42' W 001°56'3 6.4
2017-Sep-12 21:00N 46°39' W 001°59'4 8.6
2017-Sep-12 20:29N 46°35' W 002°00'4 8.6
2017-Sep-12 20:00N 46°31' W 002°02'4 8.6
2017-Sep-12 19:30N 46°27' W 002°03'5 8.7
2017-Sep-12 18:59N 46°22' W 002°05'9 0.7
2017-Sep-12 05:08N 46°32' W 002°06'1 8.0
2017-Sep-12 04:59N 46°33' W 002°05'4 8.0
2017-Sep-12 04:26N 46°36' W 002°02'4 8.2
2017-Sep-12 04:00N 46°39' W 001°59'3 3.2
2017-Sep-12 03:02N 46°42' W 001°56'0 5.2
2017-Sep-12 02:59N 46°42' W 001°57'4 7.5
2017-Sep-12 02:31N 46°39' W 001°59'4 8.5
2017-Sep-12 01:59N 46°35' W 002°02'4 8.5
2017-Sep-12 01:30N 46°31' W 002°04'5 8.3
2017-Sep-12 00:56N 46°27' W 002°07'20 1.7
2017-Sep-11 13:21N 46°10' W 001°50'14 2.3
2017-Sep-11 06:55N 46°23' W 001°59'2 5.0
2017-Sep-11 06:27N 46°26' W 001°58'4 8.2
2017-Sep-11 06:01N 46°29' W 001°58'4 8.2
2017-Sep-11 05:30N 46°34' W 001°58'4 8.3
2017-Sep-11 05:01N 46°38' W 001°58'4 3.9
2017-Sep-11 03:56N 46°42' W 001°57'4 8.1
2017-Sep-11 03:30N 46°39' W 002°00'4 8.4
2017-Sep-11 03:00N 46°36' W 002°04'5 8.5
2017-Sep-11 02:24N 46°32' W 002°09'3 8.2
2017-Sep-11 02:00N 46°30' W 002°12'8 0.4
2017-Sep-10 04:19N 46°35' W 002°04'3 8.1
2017-Sep-10 03:58N 46°37' W 002°01'4 8.2
2017-Sep-10 03:30N 46°40' W 001°58'  

Dump ship's entire track history